Pagrindinis puslapis
METAR-TAF:

METAR-TAF

Oro uostai :

Kingstonas, Jamaika

platuma: 17-56N, ilguma: 076-47W, Aukštis: 3 m

Dabartinis oras

Ataskaita buvo paskelbta 1 valandą ir 5 minutes, ne 13:00 UTC
Vėjas 4 kt iš Šiaurės
Temperatūra 29°C
Drėgmė 79%
Slėgis 1017 hPa
Matomumas 10 km arba daugiau
Mažai debesys ne aukštis 2200 ft

METAR: MKJP 071300Z 35004KT 9999 FEW022 29/25 Q1017

Laikas: 09:05 (14:05 UTC)

Prognozė

Ataskaita buvo paskelbta 2 valandos ir 50 minutes, ne 11:15 UTC
Prognozė galioja nuo 07 metu 12 UTC su 08 metu 12 UTC
Vėjas 8 kt iš Šiaurės Vakarų
Matomumas 10 km arba daugiau
Mažai debesys ne aukštis 2200 ft
Tapsmas
nuo 07 metu 15 UTC su 07 metu 17 UTC
Vėjas 8 kt iš Pietų/Pietryčių
Laikinai
nuo 07 metu 18 UTC su 07 metu 23 UTC
Išsisklaidę debesys ne aukštis 1800 ft
Išsisklaidę debesys ne aukštis 3400 ft
lietus
Tapsmas
nuo 08 metu 02 UTC su 08 metu 04 UTC
Vėjas 5 kt iš Šiaurės

TAF: MKJP 071115Z 0712/0812 32008KT 9999 FEW022 BECMG 0715/0717 15008KT TEMPO 0718/0723 SHRA SCT018 SCT034 BECMG 0802/0804 35005KT

Orai ataskaitas ir orų prognozės (METAR, TAF).

turimą stotys yra geltonos ir raudonos taškus žemėlapyje.

Perkelti pele per norėdami pamatyti stoties vardą.

Tada spustelėkite, norėdami matyti oro stebėjimo ir prognozės.

Norėdami pakeisti žemėlapį: spustelėkite ant žalios mygtukų su juodo kryžiaus žemyn,; žalią mygtuką su brūkšneliu, jei norite nutolinti; arba žalių rodyklių gretimoms žemėlapius.


METAR-TAF: